createdAt,value
2022-10-31T00:00:05.423Z,12.04
2022-10-31T00:01:25.880Z,12.02
2022-10-31T00:02:28.153Z,12.02
2022-10-31T00:03:30.455Z,12.00
2022-10-31T00:04:32.722Z,12.00
2022-10-31T00:05:34.942Z,11.99
2022-10-31T00:06:37.911Z,11.98
2022-10-31T00:07:40.096Z,11.98
2022-10-31T00:08:42.302Z,11.98
2022-10-31T00:09:44.480Z,11.97
2022-10-31T00:10:47.604Z,11.96
2022-10-31T00:11:49.797Z,11.96
2022-10-31T00:12:53.231Z,11.97
2022-10-31T00:13:55.543Z,11.94
2022-10-31T00:14:57.740Z,11.91
2022-10-31T00:15:59.941Z,11.91
2022-10-31T00:17:03.173Z,11.90
2022-10-31T00:18:06.439Z,11.89
2022-10-31T00:19:10.115Z,11.88
2022-10-31T00:20:12.319Z,11.88
2022-10-31T00:21:15.814Z,11.88
2022-10-31T00:22:18.019Z,11.85
2022-10-31T00:23:20.204Z,11.87
2022-10-31T00:24:22.443Z,11.86
2022-10-31T00:25:24.699Z,11.84
2022-10-31T00:26:31.247Z,11.83
2022-10-31T00:27:34.121Z,11.83
2022-10-31T00:28:36.797Z,11.82
2022-10-31T00:29:39.990Z,11.81
2022-10-31T00:30:42.247Z,11.80
2022-10-31T00:31:44.526Z,11.79
2022-10-31T00:32:46.760Z,11.78
2022-10-31T00:33:49.126Z,11.78
2022-10-31T00:34:53.363Z,11.78
2022-10-31T00:35:55.673Z,11.75
2022-10-31T00:36:57.913Z,11.76
2022-10-31T00:38:00.431Z,11.73
2022-10-31T00:39:02.755Z,11.72
2022-10-31T00:40:05.515Z,11.72
2022-10-31T00:41:08.064Z,11.71
2022-10-31T00:42:10.246Z,11.70
2022-10-31T00:44:34.575Z,11.69
2022-10-31T00:45:36.753Z,11.69
2022-10-31T00:46:38.989Z,11.68
2022-10-31T00:47:41.167Z,11.68
2022-10-31T00:48:43.945Z,11.67
2022-10-31T00:49:46.488Z,11.66
2022-10-31T00:50:48.717Z,11.65
2022-10-31T00:51:51.024Z,11.63
2022-10-31T00:52:53.265Z,11.63
2022-10-31T00:53:55.593Z,11.61
2022-10-31T00:54:57.861Z,11.62
2022-10-31T00:56:00.705Z,11.60
2022-10-31T00:57:04.341Z,11.59
2022-10-31T00:58:06.573Z,11.58
2022-10-31T00:59:08.823Z,11.57
2022-10-31T01:00:11.917Z,11.57
2022-10-31T01:01:16.533Z,11.55
2022-10-31T01:02:19.053Z,11.56
2022-10-31T01:03:30.286Z,11.55
2022-10-31T01:04:32.647Z,11.54
2022-10-31T01:05:34.871Z,11.54
2022-10-31T01:06:37.933Z,11.54
2022-10-31T01:07:42.571Z,11.52
2022-10-31T01:08:45.345Z,11.51
2022-10-31T01:09:50.157Z,11.51
2022-10-31T01:11:14.820Z,11.50
2022-10-31T01:12:17.178Z,11.50
2022-10-31T01:13:19.371Z,11.50
2022-10-31T01:14:21.607Z,11.49
2022-10-31T01:15:24.420Z,11.48
2022-10-31T01:16:30.492Z,11.46
2022-10-31T01:17:33.620Z,11.45
2022-10-31T01:18:36.923Z,11.47
2022-10-31T01:19:39.095Z,11.45
2022-10-31T01:20:41.301Z,11.46
2022-10-31T01:21:43.475Z,11.44
2022-10-31T01:22:45.853Z,11.44
2022-10-31T01:23:51.309Z,11.43
2022-10-31T01:24:53.523Z,11.42
2022-10-31T01:26:12.447Z,11.41
2022-10-31T01:27:16.199Z,11.40
2022-10-31T01:28:18.435Z,11.40
2022-10-31T01:29:20.740Z,11.38
2022-10-31T01:30:22.975Z,11.38
2022-10-31T01:31:28.533Z,11.36
2022-10-31T01:32:30.862Z,11.36
2022-10-31T01:33:35.091Z,11.36
2022-10-31T01:34:37.378Z,11.35
2022-10-31T01:35:39.582Z,11.34
2022-10-31T01:36:42.897Z,11.34
2022-10-31T01:37:45.628Z,11.33
2022-10-31T01:38:49.368Z,11.33
2022-10-31T01:39:51.631Z,11.33
2022-10-31T01:40:54.072Z,11.31
2022-10-31T01:41:56.258Z,11.31
2022-10-31T01:42:58.763Z,11.30
2022-10-31T01:44:22.890Z,11.31
2022-10-31T01:45:25.476Z,11.29
2022-10-31T01:46:46.021Z,11.30
2022-10-31T01:47:49.791Z,11.29
2022-10-31T01:48:55.103Z,11.27
2022-10-31T01:50:01.745Z,11.27
2022-10-31T01:51:06.024Z,11.26
2022-10-31T01:52:34.102Z,11.26
2022-10-31T01:53:37.725Z,11.23
2022-10-31T01:54:44.299Z,11.23
2022-10-31T01:55:47.706Z,11.22
2022-10-31T01:56:56.739Z,11.23
2022-10-31T01:58:05.726Z,11.22
2022-10-31T01:59:11.951Z,11.21
2022-10-31T02:00:17.219Z,11.21
2022-10-31T02:01:19.696Z,11.19
2022-10-31T02:02:22.298Z,11.19
2022-10-31T02:03:27.196Z,11.19
2022-10-31T02:04:30.778Z,11.18
2022-10-31T02:05:34.919Z,11.17
2022-10-31T02:06:44.298Z,11.17
2022-10-31T02:08:09.338Z,11.16
2022-10-31T02:09:13.902Z,11.14
2022-10-31T02:10:16.509Z,11.15
2022-10-31T02:11:18.729Z,11.15
2022-10-31T02:12:22.490Z,11.14
2022-10-31T02:14:48.473Z,11.14
2022-10-31T02:15:57.228Z,11.13
2022-10-31T02:16:59.648Z,11.13
2022-10-31T02:18:02.427Z,11.11
2022-10-31T02:19:11.899Z,11.11
2022-10-31T02:20:17.331Z,11.11
2022-10-31T02:21:33.285Z,11.11
2022-10-31T02:22:40.923Z,11.09
2022-10-31T02:24:22.916Z,11.09
2022-10-31T02:25:40.325Z,11.09
2022-10-31T02:26:46.316Z,11.08
2022-10-31T02:28:03.205Z,11.07
2022-10-31T02:29:28.376Z,11.05
2022-10-31T02:31:13.893Z,11.04
2022-10-31T02:32:47.501Z,11.03
2022-10-31T02:33:58.168Z,11.03
2022-10-31T02:35:27.715Z,11.01
2022-10-31T02:36:44.232Z,11.00
2022-10-31T02:38:20.565Z,10.98
2022-10-31T02:39:34.677Z,10.98
2022-10-31T02:40:54.138Z,10.95
2022-10-31T02:42:30.379Z,10.93
2022-10-31T02:43:41.303Z,10.92
2022-10-31T02:44:52.311Z,10.91
2022-10-31T02:45:57.298Z,10.92
2022-10-31T02:47:14.862Z,10.90
2022-10-31T02:48:23.438Z,10.90
2022-10-31T02:49:33.663Z,10.90
2022-10-31T02:50:41.159Z,10.88
2022-10-31T02:51:46.449Z,10.88
2022-10-31T02:52:53.287Z,10.86
2022-10-31T02:53:55.491Z,10.86
2022-10-31T02:54:58.397Z,10.85
2022-10-31T02:56:09.838Z,10.84
2022-10-31T02:57:12.248Z,10.85
2022-10-31T02:59:23.027Z,10.84
2022-10-31T03:00:25.687Z,10.82
2022-10-31T03:02:11.178Z,10.81
2022-10-31T03:03:23.954Z,10.82
2022-10-31T03:04:41.411Z,10.81
2022-10-31T03:05:52.242Z,10.80
2022-10-31T03:07:34.105Z,10.77
2022-10-31T03:09:06.770Z,10.78
2022-10-31T03:10:45.010Z,10.77
2022-10-31T03:12:16.268Z,10.74
2022-10-31T03:13:35.377Z,10.73
2022-10-31T03:14:58.131Z,10.72
2022-10-31T03:16:28.580Z,10.70
2022-10-31T03:17:39.570Z,10.69
2022-10-31T03:18:51.351Z,10.68
2022-10-31T03:19:56.812Z,10.68
2022-10-31T03:21:18.449Z,10.67
2022-10-31T03:22:26.497Z,10.64
2022-10-31T03:23:30.987Z,10.63
2022-10-31T03:24:39.894Z,10.63
2022-10-31T03:25:47.991Z,10.62
2022-10-31T03:26:54.633Z,10.62
2022-10-31T03:27:59.210Z,10.59
2022-10-31T03:29:05.977Z,10.60
2022-10-31T03:30:09.976Z,10.58
2022-10-31T03:31:58.470Z,10.59
2022-10-31T03:33:04.825Z,10.59
2022-10-31T03:34:09.948Z,10.57
2022-10-31T03:35:14.350Z,10.57
2022-10-31T03:36:20.781Z,10.56
2022-10-31T03:37:24.506Z,10.55
2022-10-31T03:38:27.886Z,10.55
2022-10-31T03:39:31.880Z,10.55
2022-10-31T03:40:38.843Z,10.53
2022-10-31T03:41:46.213Z,10.53
2022-10-31T03:43:00.858Z,10.52
2022-10-31T03:44:10.473Z,10.52
2022-10-31T03:45:20.662Z,10.51
2022-10-31T03:46:24.112Z,10.51
2022-10-31T03:47:29.444Z,10.51
2022-10-31T03:48:31.820Z,10.50
2022-10-31T03:49:35.801Z,10.50
2022-10-31T03:51:02.042Z,10.49
2022-10-31T03:52:25.704Z,10.49
2022-10-31T03:53:34.285Z,10.48
2022-10-31T03:54:42.578Z,10.48
2022-10-31T03:55:53.672Z,10.47
2022-10-31T03:57:15.996Z,10.46
2022-10-31T03:58:27.067Z,10.47
2022-10-31T03:59:38.261Z,10.44
2022-10-31T04:00:45.597Z,10.45
2022-10-31T04:01:53.097Z,10.43
2022-10-31T04:03:10.645Z,10.43
2022-10-31T04:04:17.727Z,10.43
2022-10-31T04:05:22.558Z,10.42
2022-10-31T04:06:26.801Z,10.39
2022-10-31T04:07:34.609Z,10.38
2022-10-31T04:08:43.557Z,10.38
2022-10-31T04:09:52.579Z,10.39
2022-10-31T04:10:59.159Z,10.38
2022-10-31T04:12:03.994Z,10.38
2022-10-31T04:13:24.323Z,10.36
2022-10-31T04:14:39.754Z,10.35
2022-10-31T04:15:45.483Z,10.34
2022-10-31T04:16:47.950Z,10.34
2022-10-31T04:17:54.363Z,10.32
2022-10-31T04:18:57.201Z,10.31
2022-10-31T04:20:03.342Z,10.30
2022-10-31T04:21:09.199Z,10.28
2022-10-31T04:22:11.612Z,10.28
2022-10-31T04:23:23.356Z,10.26
2022-10-31T04:24:26.748Z,10.26
2022-10-31T04:25:30.991Z,10.24
2022-10-31T04:26:34.819Z,10.23
2022-10-31T04:27:37.208Z,10.23
2022-10-31T04:28:39.456Z,10.22
2022-10-31T04:29:44.379Z,10.21
2022-10-31T04:30:49.385Z,10.20
2022-10-31T04:31:52.590Z,10.21
2022-10-31T04:32:54.903Z,10.18
2022-10-31T04:33:57.799Z,10.18
2022-10-31T04:35:00.110Z,10.17
2022-10-31T04:36:04.136Z,10.16
2022-10-31T04:37:06.395Z,10.17
2022-10-31T04:38:09.017Z,10.15
2022-10-31T04:39:11.255Z,10.15
2022-10-31T04:40:18.196Z,10.14
2022-10-31T04:41:38.585Z,10.12
2022-10-31T04:42:48.539Z,10.12
2022-10-31T04:43:51.214Z,10.12
2022-10-31T04:44:53.497Z,10.11
2022-10-31T04:45:55.783Z,10.11
2022-10-31T04:46:58.512Z,10.08
2022-10-31T04:48:01.035Z,10.09
2022-10-31T04:49:06.115Z,10.07
2022-10-31T04:50:08.742Z,10.06
2022-10-31T04:51:12.918Z,10.06
2022-10-31T04:52:15.866Z,10.05
2022-10-31T04:53:18.864Z,10.03
2022-10-31T04:54:41.072Z,10.02
2022-10-31T04:56:23.600Z,10.01
2022-10-31T04:57:32.020Z,10.01
2022-10-31T04:58:37.543Z,9.99
2022-10-31T04:59:45.869Z,9.99
2022-10-31T05:00:48.156Z,9.98
2022-10-31T05:01:50.632Z,9.97
2022-10-31T05:02:59.690Z,9.97
2022-10-31T05:04:03.520Z,9.94
2022-10-31T05:05:07.600Z,9.94
2022-10-31T05:06:13.130Z,9.92
2022-10-31T05:07:17.435Z,9.92
2022-10-31T05:08:20.672Z,9.91
2022-10-31T05:09:25.901Z,9.91
2022-10-31T05:10:30.844Z,9.90
2022-10-31T05:11:35.141Z,9.89
2022-10-31T05:12:57.145Z,9.87
2022-10-31T05:14:18.218Z,9.87
2022-10-31T05:15:52.305Z,9.86
2022-10-31T05:16:54.568Z,9.85
2022-10-31T05:18:35.254Z,9.86
2022-10-31T05:19:57.406Z,9.83
2022-10-31T05:21:31.953Z,9.82
2022-10-31T05:22:37.477Z,9.81
2022-10-31T05:23:42.996Z,9.80
2022-10-31T05:24:46.737Z,9.80
2022-10-31T05:25:49.196Z,9.79
2022-10-31T05:26:51.478Z,9.77
2022-10-31T05:27:55.516Z,9.77
2022-10-31T05:28:57.862Z,9.76
2022-10-31T05:31:22.783Z,9.74
2022-10-31T05:32:26.301Z,9.74
2022-10-31T05:33:47.380Z,9.71
2022-10-31T05:35:10.512Z,9.71
2022-10-31T05:36:35.502Z,9.69
2022-10-31T05:37:47.584Z,9.69
2022-10-31T05:38:49.845Z,9.68
2022-10-31T05:40:01.236Z,9.66
2022-10-31T05:41:07.087Z,9.64
2022-10-31T05:42:09.905Z,9.63
2022-10-31T05:43:12.158Z,9.61
2022-10-31T05:44:14.703Z,9.60
2022-10-31T05:45:29.675Z,9.60
2022-10-31T05:46:35.507Z,9.58
2022-10-31T05:48:00.117Z,9.57
2022-10-31T05:49:24.232Z,9.54
2022-10-31T05:50:55.471Z,9.52
2022-10-31T05:51:59.147Z,9.52
2022-10-31T05:53:10.307Z,9.51
2022-10-31T05:54:16.040Z,9.49
2022-10-31T05:55:20.467Z,9.47
2022-10-31T05:56:40.487Z,9.46
2022-10-31T05:57:42.705Z,9.45
2022-10-31T05:58:45.170Z,9.44
2022-10-31T05:59:51.006Z,9.43
2022-10-31T06:01:04.263Z,9.42
2022-10-31T06:02:09.523Z,9.41
2022-10-31T06:03:30.284Z,9.39
2022-10-31T06:04:33.419Z,9.37
2022-10-31T06:05:35.666Z,9.36
2022-10-31T06:06:37.917Z,9.35
2022-10-31T06:07:40.294Z,9.34
2022-10-31T06:08:43.262Z,9.34
2022-10-31T06:09:51.091Z,9.32
2022-10-31T06:10:56.851Z,9.31
2022-10-31T06:12:19.042Z,9.31
2022-10-31T06:13:45.212Z,9.30
2022-10-31T06:14:56.252Z,9.30
2022-10-31T06:15:58.608Z,9.28
2022-10-31T06:17:06.910Z,9.27
2022-10-31T06:18:24.290Z,9.26
2022-10-31T06:19:29.998Z,9.26
2022-10-31T06:20:33.674Z,9.27
2022-10-31T06:21:38.865Z,9.27
2022-10-31T06:22:41.128Z,9.26
2022-10-31T06:23:43.440Z,9.27
2022-10-31T06:25:07.419Z,9.27
2022-10-31T06:26:13.058Z,9.27
2022-10-31T06:27:15.747Z,9.30
2022-10-31T06:28:18.566Z,9.32
2022-10-31T06:29:27.227Z,9.33
2022-10-31T06:30:41.763Z,9.35
2022-10-31T06:31:44.001Z,9.37
2022-10-31T06:32:46.869Z,9.40
2022-10-31T06:33:49.235Z,9.43
2022-10-31T06:34:51.676Z,9.46
2022-10-31T06:35:54.005Z,9.50
2022-10-31T06:36:56.681Z,9.53
2022-10-31T06:38:10.835Z,9.58
2022-10-31T06:39:16.266Z,9.63
2022-10-31T06:40:18.776Z,9.67
2022-10-31T06:41:42.479Z,9.72
2022-10-31T06:42:46.328Z,9.79
2022-10-31T06:43:48.735Z,9.83
2022-10-31T06:45:23.506Z,9.93
2022-10-31T06:46:44.410Z,9.99
2022-10-31T06:48:21.759Z,10.08
2022-10-31T06:49:56.478Z,10.16
2022-10-31T06:51:01.579Z,10.24
2022-10-31T06:52:04.176Z,10.30
2022-10-31T06:53:06.515Z,10.36
2022-10-31T06:54:10.036Z,10.42
2022-10-31T06:55:12.422Z,10.49
2022-10-31T06:56:14.771Z,10.56
2022-10-31T06:57:21.646Z,10.64
2022-10-31T06:58:24.225Z,10.72
2022-10-31T06:59:27.448Z,10.78
2022-10-31T07:00:52.708Z,10.86
2022-10-31T07:01:55.200Z,10.93
2022-10-31T07:03:00.569Z,11.00
2022-10-31T07:04:02.783Z,11.06
2022-10-31T07:05:08.074Z,11.10
2022-10-31T07:06:10.314Z,11.15
2022-10-31T07:07:14.239Z,11.19
2022-10-31T07:08:16.536Z,11.24
2022-10-31T07:09:18.947Z,11.29
2022-10-31T07:10:24.319Z,11.33
2022-10-31T07:11:32.762Z,11.39
2022-10-31T07:12:35.518Z,11.45
2022-10-31T07:13:38.931Z,11.51
2022-10-31T07:14:43.192Z,11.54
2022-10-31T07:15:46.217Z,11.61
2022-10-31T07:16:52.590Z,11.69
2022-10-31T07:18:02.494Z,11.77
2022-10-31T07:19:06.248Z,11.84
2022-10-31T07:20:10.184Z,11.95
2022-10-31T07:21:12.959Z,12.04
2022-10-31T07:22:15.786Z,12.11
2022-10-31T07:23:20.122Z,12.22
2022-10-31T07:24:32.312Z,12.32
2022-10-31T07:25:34.594Z,12.41
2022-10-31T07:26:44.737Z,12.51
2022-10-31T07:27:47.040Z,12.60
2022-10-31T07:28:49.286Z,12.68
2022-10-31T07:29:55.017Z,12.77
2022-10-31T07:30:58.711Z,12.85
2022-10-31T07:32:01.573Z,12.94
2022-10-31T07:33:08.855Z,13.04
2022-10-31T07:34:35.884Z,13.14
2022-10-31T07:35:56.985Z,13.25
2022-10-31T07:37:04.917Z,13.33
2022-10-31T07:38:11.989Z,13.43
2022-10-31T07:39:14.274Z,13.49
2022-10-31T07:40:18.534Z,13.56
2022-10-31T07:41:22.351Z,13.65
2022-10-31T07:42:24.615Z,13.71
2022-10-31T07:43:27.214Z,13.77
2022-10-31T07:45:14.366Z,13.87
2022-10-31T07:46:42.680Z,13.97
2022-10-31T07:48:12.482Z,14.05
2022-10-31T07:49:33.717Z,14.10
2022-10-31T07:51:02.310Z,14.18
2022-10-31T07:52:27.344Z,14.25
2022-10-31T07:53:58.523Z,14.33
2022-10-31T07:55:05.801Z,14.39
2022-10-31T07:56:10.550Z,14.45
2022-10-31T07:57:12.912Z,14.49
2022-10-31T07:58:16.740Z,14.55
2022-10-31T07:59:19.617Z,14.60
2022-10-31T08:00:21.906Z,14.66
2022-10-31T08:01:25.684Z,14.73
2022-10-31T08:02:47.811Z,14.83
2022-10-31T08:04:08.408Z,14.90
2022-10-31T08:05:30.399Z,14.98
2022-10-31T08:07:01.168Z,15.07
2022-10-31T08:08:12.556Z,15.13
2022-10-31T08:09:14.943Z,15.21
2022-10-31T08:10:19.774Z,15.27
2022-10-31T08:11:22.121Z,15.34
2022-10-31T08:12:24.544Z,15.39
2022-10-31T08:13:29.487Z,15.44
2022-10-31T08:14:31.817Z,15.50
2022-10-31T08:15:38.231Z,15.55
2022-10-31T08:16:41.047Z,15.61
2022-10-31T08:17:44.660Z,15.67
2022-10-31T08:18:46.850Z,15.73
2022-10-31T08:19:50.538Z,15.78
2022-10-31T08:20:55.297Z,15.84
2022-10-31T08:21:57.718Z,15.93
2022-10-31T08:23:02.518Z,15.98
2022-10-31T08:24:05.540Z,16.03
2022-10-31T08:25:09.285Z,16.09
2022-10-31T08:26:12.452Z,16.15
2022-10-31T08:27:14.718Z,16.20
2022-10-31T08:28:17.027Z,16.27
2022-10-31T08:29:21.608Z,16.35
2022-10-31T08:30:26.818Z,16.41
2022-10-31T08:31:48.987Z,16.49
2022-10-31T08:33:29.499Z,16.56
2022-10-31T08:34:50.461Z,16.66
2022-10-31T08:36:11.245Z,16.74
2022-10-31T08:37:32.101Z,16.82
2022-10-31T08:38:34.445Z,16.88
2022-10-31T08:39:36.731Z,16.94
2022-10-31T08:40:40.279Z,16.99
2022-10-31T08:41:42.478Z,17.06
2022-10-31T08:42:48.036Z,17.13
2022-10-31T08:43:50.353Z,17.20
2022-10-31T08:44:52.557Z,17.28
2022-10-31T08:45:57.405Z,17.34
2022-10-31T08:47:03.998Z,17.42
2022-10-31T08:48:16.299Z,17.49
2022-10-31T08:49:18.692Z,17.57
2022-10-31T08:50:20.945Z,17.65
2022-10-31T08:51:23.429Z,17.72
2022-10-31T08:52:58.908Z,17.81
2022-10-31T08:53:53.492Z,17.90
2022-10-31T08:55:14.461Z,18.00
2022-10-31T08:57:40.945Z,18.18
2022-10-31T08:58:43.160Z,18.25
2022-10-31T08:59:46.167Z,18.32
2022-10-31T09:01:02.897Z,18.40
2022-10-31T09:02:06.290Z,18.48
2022-10-31T09:03:31.458Z,18.59
2022-10-31T09:04:35.629Z,18.65
2022-10-31T09:05:38.006Z,18.71
2022-10-31T09:06:50.404Z,18.78
2022-10-31T09:08:05.097Z,18.87
2022-10-31T09:09:07.520Z,18.94
2022-10-31T09:10:09.982Z,19.00
2022-10-31T09:11:13.687Z,19.07
2022-10-31T09:12:37.453Z,19.14
2022-10-31T09:13:58.313Z,19.20
2022-10-31T09:15:07.594Z,19.26
2022-10-31T09:16:31.774Z,19.33
2022-10-31T09:17:34.760Z,19.38
2022-10-31T09:18:55.233Z,19.47
2022-10-31T09:19:57.457Z,19.51
2022-10-31T09:21:06.657Z,19.55
2022-10-31T09:22:08.873Z,19.59
2022-10-31T09:23:16.664Z,19.63
2022-10-31T09:24:18.908Z,19.68
2022-10-31T09:25:21.163Z,19.73
2022-10-31T09:26:31.719Z,19.77
2022-10-31T09:27:43.639Z,19.83
2022-10-31T09:28:47.430Z,19.88
2022-10-31T09:29:53.106Z,19.91
2022-10-31T09:30:55.994Z,19.95
2022-10-31T09:32:30.137Z,20.00
2022-10-31T09:33:32.682Z,20.04
2022-10-31T09:34:54.171Z,20.09
2022-10-31T09:35:56.392Z,20.12
2022-10-31T09:36:58.634Z,20.13
2022-10-31T09:38:11.003Z,20.17
2022-10-31T09:39:13.242Z,20.19
2022-10-31T09:40:15.548Z,20.23
2022-10-31T09:41:25.680Z,20.26
2022-10-31T09:43:02.117Z,20.30
2022-10-31T09:44:20.872Z,20.34
2022-10-31T09:45:42.675Z,20.37
2022-10-31T09:47:19.505Z,20.41
2022-10-31T09:49:10.436Z,20.47
2022-10-31T09:50:30.694Z,20.50
2022-10-31T09:51:41.015Z,20.52
2022-10-31T09:53:41.166Z,20.56
2022-10-31T09:55:09.902Z,20.59
2022-10-31T09:56:18.820Z,20.62
2022-10-31T09:57:26.668Z,20.65
2022-10-31T09:58:35.437Z,20.68
2022-10-31T09:59:43.082Z,20.69
2022-10-31T10:00:48.352Z,20.72
2022-10-31T10:01:55.378Z,20.75
2022-10-31T10:03:07.970Z,20.79
2022-10-31T10:04:31.190Z,20.85
2022-10-31T10:05:52.365Z,20.88
2022-10-31T10:07:20.336Z,20.92
2022-10-31T10:08:27.633Z,20.97
2022-10-31T10:10:29.444Z,21.00
2022-10-31T10:12:29.803Z,21.04
2022-10-31T10:13:59.673Z,21.06
2022-10-31T10:15:22.092Z,21.08
2022-10-31T10:16:35.440Z,21.10
2022-10-31T10:17:52.289Z,21.11
2022-10-31T10:19:22.854Z,21.11
2022-10-31T10:20:44.819Z,21.11
2022-10-31T10:21:58.444Z,21.12
2022-10-31T10:23:30.663Z,21.13
2022-10-31T10:24:44.686Z,21.13
2022-10-31T10:25:55.649Z,21.14
2022-10-31T10:27:25.034Z,21.16
2022-10-31T10:28:39.404Z,21.15
2022-10-31T10:30:03.659Z,21.16
2022-10-31T10:31:17.444Z,21.17
2022-10-31T10:32:37.699Z,21.19
2022-10-31T10:34:10.277Z,21.20
2022-10-31T10:35:34.013Z,21.21
2022-10-31T10:36:48.748Z,21.23
2022-10-31T10:37:57.011Z,21.24
2022-10-31T10:39:09.940Z,21.23
2022-10-31T10:40:21.954Z,21.26
2022-10-31T10:41:33.975Z,21.25
2022-10-31T10:42:55.993Z,21.25
2022-10-31T10:43:58.576Z,21.28
2022-10-31T10:45:26.937Z,21.29
2022-10-31T10:47:00.186Z,21.31
2022-10-31T10:48:16.239Z,21.34
2022-10-31T10:49:19.933Z,21.35
2022-10-31T10:50:28.521Z,21.37
2022-10-31T10:53:33.138Z,21.40
2022-10-31T10:54:47.633Z,21.43
2022-10-31T10:56:12.907Z,21.44
2022-10-31T10:57:40.600Z,21.47
2022-10-31T10:58:43.708Z,21.48
2022-10-31T10:59:49.430Z,21.50
2022-10-31T11:00:54.910Z,21.52
2022-10-31T11:01:59.758Z,21.53
2022-10-31T11:03:02.361Z,21.54
2022-10-31T11:04:29.944Z,21.56
2022-10-31T11:05:55.196Z,21.57
2022-10-31T11:07:05.758Z,21.59
2022-10-31T11:08:08.959Z,21.61
2022-10-31T11:09:14.419Z,21.63
2022-10-31T11:10:17.755Z,21.65
2022-10-31T11:11:31.988Z,21.64
2022-10-31T11:12:35.067Z,21.65
2022-10-31T11:13:41.066Z,21.65
2022-10-31T11:15:00.381Z,21.66
2022-10-31T11:16:08.648Z,21.66
2022-10-31T11:17:37.448Z,21.67
2022-10-31T11:18:45.919Z,21.65
2022-10-31T11:19:48.197Z,21.65
2022-10-31T11:20:56.321Z,21.65
2022-10-31T11:22:08.260Z,21.64
2022-10-31T11:23:23.224Z,21.63
2022-10-31T11:24:28.509Z,21.62
2022-10-31T11:25:31.383Z,21.60
2022-10-31T11:26:36.252Z,21.59
2022-10-31T11:27:40.985Z,21.58
2022-10-31T11:28:43.648Z,21.58
2022-10-31T11:29:45.936Z,21.56
2022-10-31T11:30:53.872Z,21.54
2022-10-31T11:32:01.531Z,21.52
2022-10-31T11:33:05.071Z,21.50
2022-10-31T11:34:16.508Z,21.49
2022-10-31T11:35:20.967Z,21.48
2022-10-31T11:36:31.654Z,21.47
2022-10-31T11:37:36.749Z,21.47
2022-10-31T11:38:44.004Z,21.45
2022-10-31T11:39:54.495Z,21.42
2022-10-31T11:41:00.988Z,21.40
2022-10-31T11:42:08.694Z,21.39
2022-10-31T11:43:18.871Z,21.38
2022-10-31T11:44:33.731Z,21.36
2022-10-31T11:45:37.910Z,21.35
2022-10-31T11:46:50.072Z,21.33
2022-10-31T11:47:59.625Z,21.33
2022-10-31T11:49:06.574Z,21.31
2022-10-31T11:50:19.242Z,21.28
2022-10-31T11:51:31.507Z,21.27
2022-10-31T11:52:33.781Z,21.24
2022-10-31T11:53:36.285Z,21.21
2022-10-31T11:54:56.634Z,21.20
2022-10-31T11:56:17.217Z,21.17
2022-10-31T11:57:36.123Z,21.15
2022-10-31T11:58:38.375Z,21.13
2022-10-31T11:59:40.598Z,21.11
2022-10-31T12:00:51.034Z,21.07
2022-10-31T12:01:54.679Z,21.05
2022-10-31T12:03:21.530Z,21.05
2022-10-31T12:04:41.451Z,21.01
2022-10-31T12:05:47.380Z,20.99
2022-10-31T12:06:51.159Z,20.97
2022-10-31T12:07:53.334Z,20.96
2022-10-31T12:08:55.575Z,20.92
2022-10-31T12:09:58.696Z,20.91
2022-10-31T12:11:16.748Z,20.89
2022-10-31T12:12:31.987Z,20.88
2022-10-31T12:13:46.224Z,20.84
2022-10-31T12:15:16.627Z,20.83
2022-10-31T12:16:43.279Z,20.79
2022-10-31T12:17:59.723Z,20.78
2022-10-31T12:19:11.303Z,20.77
2022-10-31T12:20:24.094Z,20.74
2022-10-31T12:21:41.448Z,20.70
2022-10-31T12:22:48.816Z,20.68
2022-10-31T12:24:09.621Z,20.67
2022-10-31T12:25:44.864Z,20.63
2022-10-31T12:27:25.576Z,20.61
2022-10-31T12:28:47.199Z,20.57
2022-10-31T12:30:04.101Z,20.54
2022-10-31T12:31:24.285Z,20.51
2022-10-31T12:32:39.393Z,20.48
2022-10-31T12:33:53.340Z,20.46
2022-10-31T12:35:24.208Z,20.43
2022-10-31T12:36:54.852Z,20.41
2022-10-31T12:38:00.258Z,20.38
2022-10-31T12:39:02.761Z,20.37
2022-10-31T12:40:37.059Z,20.34
2022-10-31T12:41:58.131Z,20.30
2022-10-31T12:43:18.106Z,20.28
2022-10-31T12:44:45.269Z,20.23
2022-10-31T12:45:56.630Z,20.21
2022-10-31T12:47:23.729Z,20.18
2022-10-31T12:48:42.083Z,20.15
2022-10-31T12:50:00.278Z,20.12
2022-10-31T12:51:27.339Z,20.10
2022-10-31T12:52:41.805Z,20.07
2022-10-31T12:53:57.738Z,20.05
2022-10-31T12:55:15.088Z,20.02
2022-10-31T12:56:39.223Z,20.00
2022-10-31T12:57:46.150Z,19.99
2022-10-31T12:58:58.195Z,19.96
2022-10-31T13:00:21.065Z,19.93
2022-10-31T13:01:40.557Z,19.92
2022-10-31T13:02:49.552Z,19.90
2022-10-31T13:04:07.035Z,19.88
2022-10-31T13:05:23.293Z,19.86
2022-10-31T13:06:35.044Z,19.84
2022-10-31T13:07:49.242Z,19.83
2022-10-31T13:08:56.143Z,19.81
2022-10-31T13:10:02.304Z,19.80
2022-10-31T13:11:16.003Z,19.79
2022-10-31T13:12:22.027Z,19.77
2022-10-31T13:13:28.589Z,19.75
2022-10-31T13:14:55.790Z,19.73
2022-10-31T13:16:04.530Z,19.72
2022-10-31T13:17:13.152Z,19.71
2022-10-31T13:18:27.863Z,19.69
2022-10-31T13:19:44.475Z,19.69
2022-10-31T13:20:54.619Z,19.67
2022-10-31T13:22:21.785Z,19.66
2022-10-31T13:23:49.194Z,19.64
2022-10-31T13:24:58.088Z,19.63
2022-10-31T13:26:07.899Z,19.62
2022-10-31T13:27:32.034Z,19.61
2022-10-31T13:30:03.420Z,19.58
2022-10-31T13:31:05.775Z,19.57
2022-10-31T13:32:11.147Z,19.56
2022-10-31T13:33:37.078Z,19.55
2022-10-31T13:34:47.931Z,19.54
2022-10-31T13:36:17.974Z,19.52
2022-10-31T13:37:41.984Z,19.52
2022-10-31T13:38:54.694Z,19.50
2022-10-31T13:40:11.906Z,19.50
2022-10-31T13:41:43.120Z,19.49
2022-10-31T13:43:08.693Z,19.49
2022-10-31T13:44:27.749Z,19.48
2022-10-31T13:45:29.926Z,19.48
2022-10-31T13:46:32.115Z,19.48
2022-10-31T13:47:34.373Z,19.47
2022-10-31T13:48:42.998Z,19.47
2022-10-31T13:49:46.037Z,19.46
2022-10-31T13:51:09.779Z,19.45
2022-10-31T13:52:12.176Z,19.44
2022-10-31T13:53:21.266Z,19.45
2022-10-31T13:54:35.433Z,19.43
2022-10-31T13:55:39.875Z,19.42
2022-10-31T13:56:42.240Z,19.42
2022-10-31T13:57:45.516Z,19.42
2022-10-31T13:59:10.369Z,19.41
2022-10-31T14:00:21.785Z,19.41
2022-10-31T14:01:24.472Z,19.40
2022-10-31T14:02:37.639Z,19.41
2022-10-31T14:04:04.988Z,19.40
2022-10-31T14:05:27.606Z,19.39
2022-10-31T14:07:06.419Z,19.38
2022-10-31T14:08:21.762Z,19.38
2022-10-31T14:09:34.495Z,19.38
2022-10-31T14:10:39.823Z,19.38
2022-10-31T14:11:47.735Z,19.38
2022-10-31T14:12:51.821Z,19.38
2022-10-31T14:13:58.295Z,19.38
2022-10-31T14:15:14.110Z,19.37
2022-10-31T14:16:25.048Z,19.37
2022-10-31T14:17:34.029Z,19.37
2022-10-31T14:18:40.792Z,19.36
2022-10-31T14:19:43.060Z,19.36
2022-10-31T14:20:47.070Z,19.36
2022-10-31T14:21:50.556Z,19.36
2022-10-31T14:22:53.040Z,19.35
2022-10-31T14:23:56.643Z,19.34
2022-10-31T14:24:59.008Z,19.33
2022-10-31T14:26:29.667Z,19.32
2022-10-31T14:27:35.480Z,19.32
2022-10-31T14:28:37.844Z,19.31
2022-10-31T14:29:40.164Z,19.31
2022-10-31T14:30:55.912Z,19.30
2022-10-31T14:32:03.484Z,19.28
2022-10-31T14:33:20.673Z,19.29
2022-10-31T14:34:25.781Z,19.27
2022-10-31T14:35:47.729Z,19.26
2022-10-31T14:37:21.257Z,19.25
2022-10-31T14:39:02.837Z,19.23
2022-10-31T14:40:13.984Z,19.22
2022-10-31T14:41:34.982Z,19.20
2022-10-31T14:42:46.245Z,19.18
2022-10-31T14:44:22.088Z,19.16
2022-10-31T14:45:51.829Z,19.14
2022-10-31T14:47:10.922Z,19.11
2022-10-31T14:48:49.244Z,19.09
2022-10-31T14:50:25.383Z,19.07
2022-10-31T14:51:37.420Z,19.04
2022-10-31T14:52:42.802Z,19.03
2022-10-31T14:53:49.453Z,19.01
2022-10-31T14:54:57.837Z,18.98
2022-10-31T14:56:05.791Z,18.96
2022-10-31T14:57:17.812Z,18.93
2022-10-31T14:58:44.120Z,18.92
2022-10-31T15:00:02.695Z,18.89
2022-10-31T15:01:08.317Z,18.87
2022-10-31T15:02:49.169Z,18.83
2022-10-31T15:04:27.995Z,18.80
2022-10-31T15:05:24.411Z,18.77
2022-10-31T15:06:27.108Z,18.75
2022-10-31T15:07:32.435Z,18.72
2022-10-31T15:08:50.252Z,18.70
2022-10-31T15:10:02.846Z,18.66
2022-10-31T15:11:37.681Z,18.62
2022-10-31T15:12:39.927Z,18.60
2022-10-31T15:13:44.321Z,18.58
2022-10-31T15:15:54.970Z,18.50
2022-10-31T15:17:03.750Z,18.49
2022-10-31T15:18:07.436Z,18.45
2022-10-31T15:19:13.885Z,18.42
2022-10-31T15:20:22.980Z,18.39
2022-10-31T15:21:29.305Z,18.38
2022-10-31T15:22:32.722Z,18.35
2022-10-31T15:23:34.944Z,18.34
2022-10-31T15:24:39.809Z,18.31